Thursday, November 23, 2017, 9:34 AM GMT
Back to Local

CYOY, Valcartier Airport

Location: , , Canada Lat: 46.9
Local Time: 9:34 AM GMT ( 9:34 GMT) Lon: -71.5
Time Zone: GMT Elev: 551 ft

Show me the last for .
Show Decoded

2017-11-23 09:00 METAR CYOY 230900Z AUTO 28003KT 9SM BKN019 BKN071 M08/M12 A2996 RMK SLP156 =
2017-11-23 08:22 METAR CYOY 230822Z AUTO 28006KT 9SM BKN021 BKN076 BKN086 M08/M12 A2995 =
2017-11-23 08:00 METAR CYOY 230800Z AUTO 28003KT 260V320 9SM BKN026 BKN079 BKN086 M08/M12 A2995
                 RMK SLP154 =
2017-11-23 07:40 METAR CYOY 230740Z AUTO 28005KT 260V320 9SM FEW026 FEW079 M08/M11 A2995 =
2017-11-23 07:10 METAR CYOY 230710Z AUTO 30005KT 9SM BKN019 BKN079 BKN091 M08/M11 A2995 =
2017-11-23 07:00 METAR CYOY 230700Z AUTO 29006KT 270V350 9SM SCT026 SCT084 SCT091 M07/M11 A2996
                 RMK SLP155 =
2017-11-23 06:00 METAR CYOY 230600Z AUTO 32007KT 280V350 9SM CLR M07/M11 A2995 RMK SLP151 =
2017-11-23 05:00 METAR CYOY 230500Z AUTO 34012G18KT 280V030 9SM FEW083 FEW092 M06/M11 A2993 RMK
                 SLP146 =
2017-11-23 04:00 METAR CYOY 230400Z AUTO 35013KT 9SM CLR M05/M10 A2993 RMK SLP146 =
2017-11-23 03:00 METAR CYOY 230300Z AUTO 01006G15KT 320V020 9SM FEW074 M05/M09 A2993 RMK SLP146 =
2017-11-23 02:00 METAR CYOY 230200Z AUTO 36011G18KT 9SM CLR M04/M09 A2994 RMK SLP150 =
2017-11-23 01:00 METAR CYOY 230100Z AUTO 01005KT 250V050 9SM OVC052 OVC068 OVC076 M02/M07 A2994
                 RMK SLP148 =
2017-11-23 00:00 METAR CYOY 230000Z AUTO 31007G16KT 260V330 9SM OVC054 M01/M05 A2993 RMK SLP145 =
2017-11-22 23:00 METAR CYOY 222300Z AUTO 33004G15KT 310V040 9SM FEW023 OVC054 00/M04 A2992 RMK
                 SLP140 =
2017-11-22 22:00 METAR CYOY 222200Z AUTO 34005KT 300V030 9SM OVC054 OVC067 01/M02 A2989 RMK
                 SLP132 =
2017-11-22 21:00 METAR CYOY 222100Z AUTO 32004KT 270V030 9SM OVC040 02/01 A2987 RMK SLP125 =
2017-11-22 20:07 METAR CYOY 222007Z AUTO 23004KT 3SM FEW002 SCT027 BKN040 BKN052 02/02 A2986 =
2017-11-22 20:03 METAR CYOY 222003Z AUTO 23005KT 2 1/2SM SCT002 BKN027 BKN042 BKN052 02/02 A2986
                 =
2017-11-22 20:00 METAR CYOY 222000Z AUTO 23004KT 2 1/2SM BKN002 OVC027 OVC042 02/02 A2986 RMK
                 SLP121 =
2017-11-22 19:42 METAR CYOY 221942Z AUTO 27003KT 200V290 1 3/4SM OVC002 02/02 A2986 =
2017-11-22 19:22 METAR CYOY 221922Z AUTO 23003KT 210V280 2 1/4SM OVC001 02/02 A2987 =
2017-11-22 19:15 METAR CYOY 221915Z AUTO 25004KT 200V270 2 1/2SM OVC002 02/01 A2987 =
2017-11-22 19:00 METAR CYOY 221900Z AUTO 23005KT 3SM OVC002 02/01 A2987 RMK SLP125 =
2017-11-22 18:42 METAR CYOY 221842Z AUTO 23006KT 200V260 3SM OVC002 02/01 A2987 =
2017-11-22 18:27 METAR CYOY 221827Z AUTO 23004KT 200V270 4SM -RA OVC002 02/01 A2987 =
2017-11-22 18:20 METAR CYOY 221820Z AUTO 22006KT 190V250 5SM -RA OVC003 02/01 A2987 =
2017-11-22 18:00 METAR CYOY 221800Z AUTO 23003KT 200V260 9SM OVC003 02/02 A2986 RMK PCPN 0.5MM
                 PAST HR SLP121 =
2017-11-22 17:49 METAR CYOY 221749Z AUTO 24002KT 9SM OVC003 02/02 A2986 =
2017-11-22 17:45 METAR CYOY 221745Z AUTO 24003KT 9SM OVC004 02/01 A2986 =
2017-11-22 17:00 METAR CYOY 221700Z AUTO 00000KT 7SM OVC003 02/02 A2986 RMK SLP121 =
2017-11-22 16:49 METAR CYOY 221649Z AUTO 00000KT 6SM OVC003 02/01 A2987 =
2017-11-22 16:48 METAR CYOY 221648Z AUTO 22002KT 6SM FEW003 OVC006 02/01 A2987 =
2017-11-22 16:24 METAR CYOY 221624Z AUTO 00000KT 6SM BKN003 BKN048 02/02 A2987 =
2017-11-22 16:13 METAR CYOY 221613Z AUTO 00000KT 6SM BKN004 BKN014 BKN048 02/02 A2987 =
2017-11-22 16:10 METAR CYOY 221610Z AUTO 00000KT 6SM SCT004 BKN014 BKN048 02/01 A2988 =
2017-11-22 16:00 METAR CYOY 221600Z 00000KT 3SM BR VCFG SCT006 BKN016 OVC048 02/01 A2988 RMK
                 SF4SC2SC2 SUN DIMLY VISBL LAST STFD OBS SLP126 =
2017-11-22 15:55 METAR CYOY 221555Z 00000KT 3SM BR VCFG SCT006 SCT010 OVC051 02/01 A2988 RMK
                 SF3SC1SC4 DA-828FT SUN DIMLY VISBL SLP126 =
2017-11-22 15:00 METAR CYOY 221500Z 00000KT 2 1/4SM -RA BR VCFG OVC006 01/00 A2989 RMK ST8
                 DA-957FT SLP134 =
2017-11-22 14:00 METAR CYOY 221400Z 00000KT 3SM -RA VCFG OVC009 00/00 A2989 RMK SC8 DA-983FT
                 SLP133 =
2017-11-22 13:46 METAR CYOY 221346Z 00000KT 3SM -RA VCFG OVC010 00/00 A2989 RMK SC8 DA-997FT
                 SLP132 =
2017-11-22 13:18 METAR CYOY 221318Z 00000KT 2 1/2SM -RA OVC008 00/M00 A2989 RMK SC8 DA-998FT
                 SLP132 =
2017-11-22 13:00 METAR CYOY 221300Z 00000KT 2 1/2SM -RA OVC012 00/00 A2989 RMK ST8 DA-996FT FST
                 STFD OBS SLP134 =
2017-11-22 12:42 METAR CYOY 221242Z AUTO 00000KT 2 1/2SM -RA OVC012 00/00 A2989 =
2017-11-22 12:07 METAR CYOY 221207Z AUTO 00000KT 3SM -RA OVC014 00/00 A2988 =
2017-11-22 12:00 METAR CYOY 221200Z AUTO 00000KT 2 1/2SM -RA OVC014 00/M00 A2988 RMK PCPN 0.5MM
                 PAST HR SLP127 =
2017-11-22 11:00 METAR CYOY 221100Z AUTO 00000KT 2 1/4SM -RA OVC014 00/M00 A2987 RMK ICG PAST HR
                 PCPN 0.5MM PAST HR SLP123 =
2017-11-22 10:43 METAR CYOY 221043Z AUTO 00000KT 2 1/2SM -RA OVC014 00/M00 A2986 RMK ICG PAST HR
                 =
2017-11-22 10:04 METAR CYOY 221004Z AUTO 00000KT 2 1/2SM -FZRA OVC014 00/M00 A2986 RMK ICG =
2017-11-22 10:02 METAR CYOY 221002Z AUTO 00000KT 3SM -FZRA OVC014 00/M00 A2986 RMK ICG =
2017-11-22 10:00 METAR CYOY 221000Z AUTO 00000KT 3SM -FZRA OVC017 00/M00 A2986 RMK ICG SLP120 =
2017-11-22 09:39 METAR CYOY 220939Z AUTO 00000KT 5SM -FZRA OVC024 00/M00 A2985 RMK ICG =

Support USWX by starting your Amazon purchase here.